createdAt,value
2022-10-12T00:00:59.858Z,52.92
2022-10-12T00:03:28.299Z,53.33
2022-10-12T00:06:09.275Z,51.60
2022-10-12T00:08:39.135Z,53.35
2022-10-12T00:11:08.426Z,51.25
2022-10-12T00:13:36.721Z,44.35
2022-10-12T00:16:06.274Z,43.53
2022-10-12T00:18:35.528Z,51.00
2022-10-12T00:21:07.272Z,40.28
2022-10-12T00:23:36.731Z,41.50
2022-10-12T00:26:06.852Z,47.50
2022-10-12T00:28:36.081Z,42.35
2022-10-12T00:31:08.760Z,46.67
2022-10-12T00:33:38.606Z,51.25
2022-10-12T00:36:16.719Z,47.65
2022-10-12T00:38:45.579Z,44.28
2022-10-12T00:41:14.882Z,56.17
2022-10-12T00:43:45.615Z,50.13
2022-10-12T00:46:18.062Z,47.13
2022-10-12T00:48:47.836Z,43.17
2022-10-12T00:51:20.349Z,45.80
2022-10-12T00:53:56.268Z,45.72
2022-10-12T00:56:28.035Z,45.50
2022-10-12T00:58:57.427Z,45.17
2022-10-12T01:01:25.830Z,41.85
2022-10-12T01:03:54.181Z,49.83
2022-10-12T01:06:23.769Z,35.65
2022-10-12T01:08:52.327Z,44.90
2022-10-12T01:11:20.455Z,35.47
2022-10-12T01:13:48.568Z,50.75
2022-10-12T01:16:23.472Z,50.90
2022-10-12T01:18:58.844Z,40.17
2022-10-12T01:21:28.807Z,51.13
2022-10-12T01:24:36.735Z,41.38
2022-10-12T01:27:19.159Z,42.53
2022-10-12T01:30:18.278Z,36.72
2022-10-12T01:33:08.467Z,42.28
2022-10-12T01:35:43.087Z,43.55
2022-10-12T01:38:25.285Z,44.28
2022-10-12T01:41:00.823Z,46.50
2022-10-12T01:43:35.466Z,48.00
2022-10-12T01:46:45.126Z,42.53
2022-10-12T01:49:16.004Z,45.38
2022-10-12T01:52:04.732Z,39.53
2022-10-12T01:54:44.952Z,47.67
2022-10-12T01:57:20.241Z,43.80
2022-10-12T01:59:58.523Z,39.90
2022-10-12T02:02:35.949Z,50.15
2022-10-12T02:05:08.041Z,46.40
2022-10-12T02:07:42.536Z,45.20
2022-10-12T02:10:16.940Z,46.90
2022-10-12T02:12:46.456Z,49.33
2022-10-12T02:15:15.857Z,47.20
2022-10-12T02:17:49.183Z,48.30
2022-10-12T02:20:19.460Z,46.22
2022-10-12T02:22:51.581Z,43.33
2022-10-12T02:25:23.515Z,45.03
2022-10-12T02:27:57.487Z,42.40
2022-10-12T02:30:26.321Z,46.20
2022-10-12T02:33:00.780Z,44.38
2022-10-12T02:35:33.686Z,48.20
2022-10-12T02:38:06.026Z,42.53
2022-10-12T02:40:38.368Z,42.72
2022-10-12T02:43:12.949Z,46.55
2022-10-12T02:45:43.978Z,53.00
2022-10-12T02:48:17.367Z,39.55
2022-10-12T02:50:47.606Z,52.35
2022-10-12T02:53:16.199Z,53.90
2022-10-12T02:55:50.044Z,45.17
2022-10-12T02:58:18.805Z,48.83
2022-10-12T03:00:47.235Z,45.63
2022-10-12T03:03:16.797Z,45.42
2022-10-12T03:05:45.125Z,51.65
2022-10-12T03:08:13.537Z,45.90
2022-10-12T03:10:41.649Z,46.80
2022-10-12T03:13:09.800Z,41.85
2022-10-12T03:15:38.015Z,50.25
2022-10-12T03:18:06.330Z,56.67
2022-10-12T03:20:35.853Z,50.33
2022-10-12T03:23:04.424Z,56.72
2022-10-12T03:25:33.325Z,45.83
2022-10-12T03:28:01.623Z,44.15
2022-10-12T03:30:29.825Z,58.40
2022-10-12T03:32:57.994Z,49.70
2022-10-12T03:35:26.166Z,46.70
2022-10-12T03:37:55.792Z,48.47
2022-10-12T03:40:24.050Z,56.90
2022-10-12T03:42:52.179Z,49.75
2022-10-12T03:45:20.331Z,43.78
2022-10-12T03:47:48.730Z,50.88
2022-10-12T03:50:16.990Z,43.38
2022-10-12T03:52:45.126Z,53.58
2022-10-12T03:55:14.675Z,45.97
2022-10-12T03:57:42.873Z,49.90
2022-10-12T04:00:12.496Z,41.28
2022-10-12T04:02:40.711Z,37.70
2022-10-12T04:05:09.533Z,43.67
2022-10-12T04:07:38.461Z,44.55
2022-10-12T04:10:08.341Z,50.60
2022-10-12T04:12:37.897Z,48.83
2022-10-12T04:15:07.343Z,48.80
2022-10-12T04:17:35.696Z,49.67
2022-10-12T04:20:04.019Z,46.53
2022-10-12T04:22:32.349Z,41.80
2022-10-12T04:25:00.536Z,42.28
2022-10-12T04:27:28.907Z,54.10
2022-10-12T04:29:58.547Z,47.85
2022-10-12T04:32:27.156Z,47.72
2022-10-12T04:34:55.284Z,41.45
2022-10-12T04:37:23.522Z,48.58
2022-10-12T04:39:51.699Z,49.83
2022-10-12T04:42:19.839Z,41.45
2022-10-12T04:44:48.108Z,46.95
2022-10-12T04:47:17.714Z,49.72
2022-10-12T04:49:45.943Z,44.17
2022-10-12T04:52:14.162Z,40.47
2022-10-12T04:54:42.335Z,44.92
2022-10-12T04:57:10.607Z,47.33
2022-10-12T04:59:38.819Z,40.70
2022-10-12T05:02:07.009Z,45.45
2022-10-12T05:04:36.590Z,43.60
2022-10-12T05:07:04.931Z,40.97
2022-10-12T05:09:33.102Z,46.40
2022-10-12T05:12:01.247Z,48.65
2022-10-12T05:14:33.599Z,55.50
2022-10-12T05:17:04.464Z,47.38
2022-10-12T05:19:32.696Z,45.45
2022-10-12T05:22:02.526Z,53.63
2022-10-12T05:24:30.756Z,42.00
2022-10-12T05:26:58.910Z,53.40
2022-10-12T05:29:27.098Z,44.72
2022-10-12T05:31:55.416Z,43.50
2022-10-12T05:34:24.678Z,47.85
2022-10-12T05:36:52.874Z,42.78
2022-10-12T05:39:22.483Z,48.72
2022-10-12T05:41:51.436Z,49.47
2022-10-12T05:44:19.551Z,44.92
2022-10-12T05:46:47.751Z,44.72
2022-10-12T05:49:15.903Z,41.53
2022-10-12T05:51:44.072Z,43.20
2022-10-12T05:54:12.270Z,42.88
2022-10-12T05:56:41.910Z,54.92
2022-10-12T05:59:10.122Z,46.08
2022-10-12T06:01:38.474Z,46.28
2022-10-12T06:04:06.774Z,46.58
2022-10-12T06:06:34.955Z,43.65
2022-10-12T06:09:03.400Z,49.78
2022-10-12T06:11:34.071Z,50.35
2022-10-12T06:14:06.081Z,47.83
2022-10-12T06:16:34.548Z,55.55
2022-10-12T06:19:02.730Z,51.10
2022-10-12T06:21:34.738Z,44.83
2022-10-12T06:24:03.301Z,59.35
2022-10-12T06:26:31.615Z,53.17
2022-10-12T06:29:00.929Z,47.17
2022-10-12T06:31:32.172Z,59.03
2022-10-12T06:34:00.492Z,46.60
2022-10-12T06:36:28.727Z,51.10
2022-10-12T06:38:56.860Z,49.55
2022-10-12T06:41:25.125Z,61.97
2022-10-12T06:43:53.430Z,62.33
2022-10-12T06:46:21.544Z,47.35
2022-10-12T06:48:51.127Z,55.00
2022-10-12T06:51:19.410Z,59.63
2022-10-12T06:53:47.531Z,58.08
2022-10-12T06:56:15.721Z,55.97
2022-10-12T06:58:43.955Z,58.58
2022-10-12T07:01:12.135Z,65.78
2022-10-12T07:03:40.330Z,67.60
2022-10-12T07:06:12.192Z,64.13
2022-10-12T07:08:42.121Z,55.58
2022-10-12T07:11:11.953Z,63.22
2022-10-12T07:13:40.220Z,70.18
2022-10-12T07:16:09.015Z,73.90
2022-10-12T07:18:37.237Z,87.68
2022-10-12T07:21:05.488Z,71.93
2022-10-12T07:23:40.179Z,64.45
2022-10-12T07:26:10.959Z,59.13
2022-10-12T07:28:39.271Z,55.30
2022-10-12T07:31:09.918Z,66.40
2022-10-12T07:33:39.747Z,59.28
2022-10-12T07:36:21.186Z,50.92
2022-10-12T07:38:51.543Z,48.10
2022-10-12T07:41:20.461Z,48.55
2022-10-12T07:43:48.638Z,51.28
2022-10-12T07:46:16.824Z,44.88
2022-10-12T07:48:50.004Z,37.60
2022-10-12T07:51:19.144Z,42.60
2022-10-12T07:53:47.436Z,40.40
2022-10-12T07:56:17.225Z,36.75
2022-10-12T07:58:50.117Z,40.00
2022-10-12T08:01:19.492Z,37.83
2022-10-12T08:03:47.776Z,43.83
2022-10-12T08:06:17.284Z,47.22
2022-10-12T08:08:45.924Z,40.33
2022-10-12T08:11:14.684Z,34.08
2022-10-12T08:13:44.309Z,32.90
2022-10-12T08:16:14.980Z,33.67
2022-10-12T08:18:43.382Z,29.08
2022-10-12T08:21:13.658Z,34.95
2022-10-12T08:23:44.486Z,39.30
2022-10-12T08:26:13.164Z,29.23
2022-10-12T08:28:41.376Z,30.48
2022-10-12T08:31:14.072Z,28.25
2022-10-12T08:33:42.330Z,30.20
2022-10-12T08:36:12.414Z,27.25
2022-10-12T08:38:43.410Z,26.25
2022-10-12T08:41:48.900Z,22.17
2022-10-12T08:44:52.361Z,23.70
2022-10-12T08:47:27.103Z,28.80
2022-10-12T08:49:55.681Z,25.35
2022-10-12T08:52:29.858Z,23.65
2022-10-12T08:55:03.383Z,21.10
2022-10-12T08:57:31.860Z,27.35
2022-10-12T09:00:01.619Z,18.55
2022-10-12T09:02:51.742Z,25.13
2022-10-12T09:05:27.990Z,21.52
2022-10-12T09:08:02.757Z,21.95
2022-10-12T09:10:44.104Z,15.40
2022-10-12T09:13:22.898Z,18.95
2022-10-12T09:15:58.298Z,17.77
2022-10-12T09:18:40.881Z,18.92
2022-10-12T09:21:12.595Z,16.15
2022-10-12T09:23:44.216Z,14.15
2022-10-12T09:26:17.241Z,13.18
2022-10-12T09:28:47.369Z,12.77
2022-10-12T09:31:44.471Z,12.80
2022-10-12T09:34:18.860Z,20.10
2022-10-12T09:36:47.683Z,11.82
2022-10-12T09:39:20.321Z,14.55
2022-10-12T09:41:50.020Z,11.05
2022-10-12T09:44:30.843Z,10.35
2022-10-12T09:47:01.398Z,11.68
2022-10-12T09:49:43.041Z,22.17
2022-10-12T09:52:12.305Z,13.27
2022-10-12T09:54:42.504Z,15.57
2022-10-12T09:57:11.064Z,11.35
2022-10-12T09:59:44.379Z,12.40
2022-10-12T10:02:16.656Z,8.23
2022-10-12T10:04:47.493Z,8.23
2022-10-12T10:07:23.265Z,9.52
2022-10-12T10:10:17.879Z,16.40
2022-10-12T10:12:51.513Z,9.77
2022-10-12T10:15:25.991Z,9.32
2022-10-12T10:17:56.688Z,13.07
2022-10-12T10:20:33.060Z,13.25
2022-10-12T10:23:03.343Z,8.13
2022-10-12T10:25:32.211Z,6.20
2022-10-12T10:28:30.131Z,10.40
2022-10-12T10:31:02.837Z,12.18
2022-10-12T10:33:32.258Z,7.00
2022-10-12T10:36:09.702Z,7.78
2022-10-12T10:38:55.460Z,8.45
2022-10-12T10:41:28.493Z,9.55
2022-10-12T10:43:56.850Z,8.82
2022-10-12T10:46:27.473Z,8.45
2022-10-12T10:48:59.174Z,7.78
2022-10-12T10:51:44.536Z,9.07
2022-10-12T10:54:18.008Z,6.88
2022-10-12T10:56:47.754Z,13.07
2022-10-12T10:59:28.751Z,8.40
2022-10-12T11:01:59.722Z,11.75
2022-10-12T11:04:30.825Z,9.20
2022-10-12T11:07:06.902Z,7.05
2022-10-12T11:09:42.474Z,8.50
2022-10-12T11:12:15.573Z,10.90
2022-10-12T11:14:46.781Z,9.93
2022-10-12T11:17:20.753Z,15.35
2022-10-12T11:19:53.968Z,10.32
2022-10-12T11:22:30.350Z,11.20
2022-10-12T11:25:09.088Z,11.88
2022-10-12T11:27:39.810Z,11.55
2022-10-12T11:30:15.074Z,8.95
2022-10-12T11:32:46.999Z,9.80
2022-10-12T11:35:18.282Z,11.85
2022-10-12T11:37:52.297Z,11.23
2022-10-12T11:40:47.696Z,14.38
2022-10-12T11:43:18.338Z,13.18
2022-10-12T11:45:49.507Z,15.15
2022-10-12T11:48:27.014Z,11.20
2022-10-12T11:51:03.840Z,6.95
2022-10-12T11:53:47.438Z,7.50
2022-10-12T11:56:21.627Z,6.05
2022-10-12T11:59:01.003Z,7.95
2022-10-12T12:01:43.195Z,11.73
2022-10-12T12:04:46.639Z,9.98
2022-10-12T12:07:47.407Z,9.05
2022-10-12T12:11:04.516Z,9.55
2022-10-12T12:13:34.115Z,8.63
2022-10-12T12:16:34.070Z,6.05
2022-10-12T12:19:34.440Z,11.40
2022-10-12T12:22:24.546Z,6.80
2022-10-12T12:25:04.251Z,7.53
2022-10-12T12:27:36.479Z,8.48
2022-10-12T12:30:24.493Z,12.15
2022-10-12T12:32:55.377Z,9.40
2022-10-12T12:35:27.943Z,8.35
2022-10-12T12:38:17.537Z,10.52
2022-10-12T12:41:01.508Z,6.75
2022-10-12T12:43:56.280Z,7.07
2022-10-12T12:46:47.979Z,6.18
2022-10-12T12:49:29.815Z,5.10
2022-10-12T12:51:59.900Z,5.32
2022-10-12T12:54:29.083Z,11.88
2022-10-12T12:57:29.928Z,7.55
2022-10-12T13:00:25.838Z,6.88
2022-10-12T13:03:42.128Z,8.43
2022-10-12T13:06:46.686Z,6.93
2022-10-12T13:09:30.893Z,6.30
2022-10-12T13:12:27.668Z,17.05
2022-10-12T13:15:17.126Z,7.80
2022-10-12T13:18:05.082Z,12.00
2022-10-12T13:20:35.674Z,12.93
2022-10-12T13:23:09.925Z,11.73
2022-10-12T13:25:43.121Z,9.02
2022-10-12T13:28:16.260Z,7.15
2022-10-12T13:30:52.389Z,6.60
2022-10-12T13:33:32.093Z,10.25
2022-10-12T13:36:05.640Z,8.35
2022-10-12T13:38:38.554Z,7.95
2022-10-12T13:41:10.891Z,6.45
2022-10-12T13:43:45.941Z,9.30
2022-10-12T13:46:16.327Z,9.25
2022-10-12T13:49:05.480Z,8.00
2022-10-12T13:51:35.086Z,9.68
2022-10-12T13:54:19.396Z,13.90
2022-10-12T13:56:49.032Z,9.77
2022-10-12T13:59:20.624Z,9.02
2022-10-12T14:01:54.928Z,12.48
2022-10-12T14:04:24.046Z,18.52
2022-10-12T14:07:00.464Z,12.40
2022-10-12T14:09:37.382Z,10.88
2022-10-12T14:12:06.144Z,11.60
2022-10-12T14:14:37.198Z,10.32
2022-10-12T14:17:05.888Z,14.23
2022-10-12T14:19:36.977Z,19.63
2022-10-12T14:22:05.488Z,18.08
2022-10-12T14:24:37.132Z,13.38
2022-10-12T14:27:07.115Z,11.63
2022-10-12T14:29:41.445Z,12.77
2022-10-12T14:32:38.519Z,12.13
2022-10-12T14:35:13.829Z,18.05
2022-10-12T14:37:42.040Z,25.92
2022-10-12T14:40:38.472Z,15.50
2022-10-12T14:43:20.955Z,9.15
2022-10-12T14:45:49.416Z,11.05
2022-10-12T14:48:20.465Z,15.93
2022-10-12T14:50:48.701Z,12.48
2022-10-12T14:53:17.206Z,9.38
2022-10-12T14:55:48.571Z,12.18
2022-10-12T14:58:19.158Z,12.77
2022-10-12T15:00:47.455Z,11.45
2022-10-12T15:03:17.987Z,10.43
2022-10-12T15:05:46.250Z,8.05
2022-10-12T15:08:14.348Z,10.98
2022-10-12T15:10:42.536Z,18.77
2022-10-12T15:13:15.298Z,11.52
2022-10-12T15:15:46.511Z,10.75
2022-10-12T15:18:14.853Z,11.13
2022-10-12T15:20:46.912Z,10.55
2022-10-12T15:23:17.291Z,16.58
2022-10-12T15:25:48.875Z,11.55
2022-10-12T15:28:18.814Z,13.93
2022-10-12T15:31:12.150Z,15.02
2022-10-12T15:33:35.466Z,7.40
2022-10-12T15:36:03.660Z,10.13
2022-10-12T15:38:31.911Z,10.15
2022-10-12T15:41:00.161Z,8.88
2022-10-12T15:43:30.155Z,10.50
2022-10-12T15:46:00.380Z,11.85
2022-10-12T15:48:29.424Z,6.55
2022-10-12T15:50:57.737Z,7.20
2022-10-12T15:53:27.315Z,9.82
2022-10-12T15:55:56.689Z,14.63
2022-10-12T15:58:24.833Z,8.82
2022-10-12T16:00:56.529Z,10.43
2022-10-12T16:03:27.986Z,11.82
2022-10-12T16:05:56.080Z,12.80
2022-10-12T16:08:24.749Z,10.20
2022-10-12T16:10:53.177Z,6.40
2022-10-12T16:13:21.438Z,7.53
2022-10-12T16:15:49.721Z,7.63
2022-10-12T16:18:19.903Z,10.90
2022-10-12T16:20:53.584Z,12.32
2022-10-12T16:23:24.219Z,10.55
2022-10-12T16:25:52.473Z,9.32
2022-10-12T16:28:20.660Z,8.63
2022-10-12T16:30:49.730Z,8.23
2022-10-12T16:33:19.710Z,6.55
2022-10-12T16:35:48.101Z,8.57
2022-10-12T16:38:16.324Z,8.43
2022-10-12T16:40:44.547Z,9.10
2022-10-12T16:43:12.827Z,7.07
2022-10-12T16:45:41.086Z,11.80
2022-10-12T16:48:09.397Z,13.13
2022-10-12T16:50:40.938Z,13.07
2022-10-12T16:53:09.664Z,9.57
2022-10-12T16:55:40.916Z,9.45
2022-10-12T16:58:09.283Z,8.75
2022-10-12T17:00:37.741Z,9.38
2022-10-12T17:03:05.975Z,17.55
2022-10-12T17:05:34.613Z,7.75
2022-10-12T17:08:04.364Z,8.18
2022-10-12T17:10:32.699Z,10.18
2022-10-12T17:13:00.903Z,13.63
2022-10-12T17:15:29.253Z,80.47
2022-10-12T17:17:59.277Z,17.27
2022-10-12T17:20:27.462Z,10.95
2022-10-12T17:22:55.713Z,18.38
2022-10-12T17:25:25.338Z,13.57
2022-10-12T17:27:53.490Z,12.48
2022-10-12T17:30:21.741Z,12.18
2022-10-12T17:32:50.013Z,8.30
2022-10-12T17:35:18.455Z,15.35
2022-10-12T17:37:46.627Z,13.73
2022-10-12T17:40:14.841Z,13.32
2022-10-12T17:42:44.469Z,9.80
2022-10-12T17:45:12.702Z,10.25
2022-10-12T17:47:40.863Z,17.52
2022-10-12T17:50:09.897Z,15.05
2022-10-12T17:52:41.198Z,16.30
2022-10-12T17:55:24.355Z,11.95
2022-10-12T17:57:59.415Z,14.05
2022-10-12T18:00:27.969Z,12.65
2022-10-12T18:02:56.297Z,13.45
2022-10-12T18:05:24.519Z,9.75
2022-10-12T18:07:52.705Z,10.88
2022-10-12T18:10:23.496Z,10.27
2022-10-12T18:12:54.228Z,13.30
2022-10-12T18:15:23.928Z,11.88
2022-10-12T18:17:52.131Z,13.63
2022-10-12T18:20:20.338Z,11.27
2022-10-12T18:22:48.573Z,10.57
2022-10-12T18:25:17.161Z,10.13
2022-10-12T18:27:46.873Z,14.05
2022-10-12T18:30:15.270Z,17.30
2022-10-12T18:32:44.866Z,9.32
2022-10-12T18:35:13.060Z,10.60
2022-10-12T18:37:41.297Z,14.57
2022-10-12T18:40:11.144Z,13.48
2022-10-12T18:42:39.410Z,11.07
2022-10-12T18:45:08.179Z,11.18
2022-10-12T18:47:36.724Z,8.77
2022-10-12T18:50:07.714Z,9.25
2022-10-12T18:52:36.049Z,7.97
2022-10-12T18:55:04.302Z,11.68
2022-10-12T18:57:36.428Z,11.82
2022-10-12T19:00:09.931Z,16.63
2022-10-12T19:02:38.317Z,12.77
2022-10-12T19:05:08.461Z,17.50
2022-10-12T19:07:36.910Z,28.17
2022-10-12T19:10:07.126Z,32.70
2022-10-12T19:12:35.530Z,35.60
2022-10-12T19:15:04.068Z,35.22
2022-10-12T19:17:33.176Z,33.78
2022-10-12T19:20:03.352Z,41.55
2022-10-12T19:22:32.994Z,39.55
2022-10-12T19:25:01.172Z,39.47
2022-10-12T19:27:29.531Z,41.70
2022-10-12T19:29:57.906Z,36.67
2022-10-12T19:32:26.138Z,31.17
2022-10-12T19:34:54.442Z,28.35
2022-10-12T19:37:23.079Z,28.35
2022-10-12T19:39:52.669Z,24.98
2022-10-12T19:42:21.210Z,24.20
2022-10-12T19:44:49.628Z,22.98
2022-10-12T19:47:17.860Z,20.77
2022-10-12T19:49:46.289Z,20.23
2022-10-12T19:52:14.524Z,18.80
2022-10-12T19:54:42.730Z,17.25
2022-10-12T19:57:12.384Z,23.88
2022-10-12T19:59:40.720Z,23.23
2022-10-12T20:02:10.257Z,19.70
2022-10-12T20:04:38.482Z,19.23
2022-10-12T20:07:06.762Z,17.80
2022-10-12T20:09:34.943Z,24.27
2022-10-12T20:12:03.129Z,23.90
2022-10-12T20:14:33.840Z,25.35
2022-10-12T20:17:02.105Z,23.23
2022-10-12T20:19:30.359Z,21.92
2022-10-12T20:21:58.487Z,24.42
2022-10-12T20:24:26.754Z,24.83
2022-10-12T20:26:54.880Z,25.10
2022-10-12T20:29:23.054Z,20.75
2022-10-12T20:31:52.655Z,22.02
2022-10-12T20:34:21.054Z,22.42
2022-10-12T20:36:51.622Z,23.20
2022-10-12T20:39:20.264Z,23.80
2022-10-12T20:41:48.427Z,19.65
2022-10-12T20:44:16.590Z,28.23
2022-10-12T20:46:57.619Z,23.98
2022-10-12T20:49:25.779Z,30.35
2022-10-12T20:51:54.255Z,23.42
2022-10-12T20:54:23.280Z,31.50
2022-10-12T20:56:52.065Z,25.15
2022-10-12T20:59:20.857Z,25.40
2022-10-12T21:01:49.213Z,25.83
2022-10-12T21:04:18.963Z,33.88
2022-10-12T21:06:47.258Z,35.35
2022-10-12T21:09:15.946Z,34.30
2022-10-12T21:11:44.657Z,38.95
2022-10-12T21:14:13.712Z,38.28
2022-10-12T21:16:42.287Z,27.17
2022-10-12T21:19:15.219Z,36.13
2022-10-12T21:21:46.545Z,38.92
2022-10-12T21:24:17.424Z,47.00
2022-10-12T21:26:46.182Z,48.60
2022-10-12T21:29:14.755Z,49.45
2022-10-12T21:31:42.947Z,49.67
2022-10-12T21:34:11.509Z,42.85
2022-10-12T21:36:40.171Z,42.15
2022-10-12T21:39:12.936Z,39.85
2022-10-12T21:41:41.782Z,40.78
2022-10-12T21:44:10.880Z,37.22
2022-10-12T21:46:39.028Z,41.42
2022-10-12T21:49:08.321Z,36.38
2022-10-12T21:51:37.798Z,42.80
2022-10-12T21:54:07.031Z,33.25
2022-10-12T21:56:37.868Z,38.33
2022-10-12T21:59:07.101Z,32.47
2022-10-12T22:01:36.804Z,33.60
2022-10-12T22:04:07.288Z,36.30
2022-10-12T22:06:35.862Z,32.53
2022-10-12T22:09:07.208Z,38.17
2022-10-12T22:11:38.241Z,36.28
2022-10-12T22:14:12.315Z,31.45
2022-10-12T22:16:40.640Z,37.50
2022-10-12T22:19:14.240Z,30.60
2022-10-12T22:21:42.867Z,30.52
2022-10-12T22:24:11.054Z,23.48
2022-10-12T22:26:40.930Z,37.20
2022-10-12T22:29:10.506Z,32.33
2022-10-12T22:31:40.320Z,25.63
2022-10-12T22:34:11.718Z,27.25
2022-10-12T22:36:40.155Z,25.75
2022-10-12T22:39:09.590Z,25.35
2022-10-12T22:41:37.812Z,26.17
2022-10-12T22:44:07.677Z,28.90
2022-10-12T22:46:35.927Z,29.05
2022-10-12T22:49:04.288Z,21.58
2022-10-12T22:51:34.581Z,26.85
2022-10-12T22:54:03.354Z,25.67
2022-10-12T22:56:32.215Z,23.75
2022-10-12T22:59:02.655Z,25.02
2022-10-12T23:01:32.149Z,30.95
2022-10-12T23:04:00.516Z,26.33
2022-10-12T23:06:28.656Z,27.45
2022-10-12T23:08:56.859Z,29.27
2022-10-12T23:11:26.873Z,33.38
2022-10-12T23:13:56.059Z,27.83
2022-10-12T23:16:25.796Z,30.50
2022-10-12T23:19:00.156Z,35.40
2022-10-12T23:21:29.489Z,30.42
2022-10-12T23:23:59.113Z,30.98
2022-10-12T23:26:28.579Z,27.70
2022-10-12T23:28:57.962Z,26.60
2022-10-12T23:31:28.857Z,30.75
2022-10-12T23:34:01.228Z,35.42
2022-10-12T23:36:29.837Z,31.30
2022-10-12T23:39:00.725Z,43.03
2022-10-12T23:41:28.892Z,32.00
2022-10-12T23:43:57.037Z,32.50
2022-10-12T23:46:25.307Z,40.35
2022-10-12T23:48:55.311Z,40.65
2022-10-12T23:51:24.948Z,32.70
2022-10-12T23:53:53.078Z,37.75
2022-10-12T23:56:21.339Z,34.85
2022-10-12T23:58:49.500Z,40.15
